createdAt,value
2022-10-30T00:00:20.103Z,15.70
2022-10-30T00:03:16.174Z,14.00
2022-10-30T00:05:48.033Z,13.40
2022-10-30T00:08:19.513Z,26.10
2022-10-30T00:10:50.323Z,13.70
2022-10-30T00:13:19.316Z,13.70
2022-10-30T00:15:53.595Z,15.20
2022-10-30T00:18:21.863Z,15.50
2022-10-30T00:20:50.269Z,16.10
2022-10-30T00:23:20.333Z,17.00
2022-10-30T00:26:08.026Z,15.20
2022-10-30T00:28:36.258Z,17.70
2022-10-30T00:31:05.878Z,14.20
2022-10-30T00:33:34.331Z,11.90
2022-10-30T00:36:05.112Z,13.90
2022-10-30T00:38:33.674Z,14.10
2022-10-30T00:41:23.565Z,15.10
2022-10-30T00:43:52.641Z,16.10
2022-10-30T00:46:38.741Z,20.90
2022-10-30T00:49:16.852Z,17.40
2022-10-30T00:51:50.449Z,27.00
2022-10-30T00:54:20.395Z,16.70
2022-10-30T00:56:50.029Z,16.70
2022-10-30T00:59:26.431Z,20.90
2022-10-30T01:01:55.567Z,18.60
2022-10-30T01:04:29.005Z,17.20
2022-10-30T01:07:05.577Z,17.10
2022-10-30T01:09:34.165Z,19.40
2022-10-30T01:12:02.359Z,19.10
2022-10-30T01:14:31.185Z,18.30
2022-10-30T01:17:55.786Z,21.00
2022-10-30T01:21:23.584Z,16.30
2022-10-30T01:24:22.416Z,15.60
2022-10-30T01:27:36.068Z,16.60
2022-10-30T01:30:52.239Z,15.50
2022-10-30T01:34:13.562Z,17.70
2022-10-30T01:37:06.312Z,19.80
2022-10-30T01:39:39.934Z,19.40
2022-10-30T01:42:44.228Z,18.10
2022-10-30T01:45:59.647Z,17.50
2022-10-30T01:49:03.696Z,18.30
2022-10-30T01:52:25.144Z,17.20
2022-10-30T01:55:42.602Z,17.10
2022-10-30T01:58:29.333Z,18.80
2022-10-30T02:00:59.380Z,17.80
2022-10-30T02:03:46.452Z,18.00
2022-10-30T02:06:14.749Z,18.70
2022-10-30T02:08:43.198Z,17.70
2022-10-30T02:11:12.375Z,19.10
2022-10-30T02:13:40.721Z,17.70
2022-10-30T02:16:10.677Z,17.30
2022-10-30T02:18:56.557Z,17.40
2022-10-30T02:21:42.546Z,17.80
2022-10-30T02:24:10.914Z,21.00
2022-10-30T02:26:39.214Z,20.30
2022-10-30T02:29:07.856Z,24.20
2022-10-30T02:31:37.414Z,19.10
2022-10-30T02:34:06.044Z,20.10
2022-10-30T02:36:34.373Z,20.50
2022-10-30T02:39:02.634Z,17.30
2022-10-30T02:41:30.871Z,18.00
2022-10-30T02:44:16.687Z,18.50
2022-10-30T02:47:02.765Z,18.90
2022-10-30T02:49:48.656Z,20.80
2022-10-30T02:52:16.990Z,20.70
2022-10-30T02:55:03.333Z,18.00
2022-10-30T02:57:49.067Z,19.60
2022-10-30T03:00:17.787Z,16.90
2022-10-30T03:02:46.029Z,17.80
2022-10-30T03:08:00.316Z,15.70
2022-10-30T03:10:28.752Z,17.50
2022-10-30T03:12:58.566Z,15.80
2022-10-30T03:15:26.935Z,19.10
2022-10-30T03:17:55.652Z,16.30
2022-10-30T03:20:24.627Z,18.40
2022-10-30T03:23:10.207Z,16.50
2022-10-30T03:25:38.410Z,14.70
2022-10-30T03:28:06.674Z,16.40
2022-10-30T03:30:34.924Z,18.50
2022-10-30T03:33:03.138Z,16.60
2022-10-30T03:35:31.534Z,15.80
2022-10-30T03:37:59.826Z,15.10
2022-10-30T03:40:28.262Z,15.30
2022-10-30T03:42:56.816Z,21.10
2022-10-30T03:45:25.635Z,16.70
2022-10-30T03:47:54.038Z,14.60
2022-10-30T03:50:22.309Z,15.60
2022-10-30T03:52:50.524Z,15.00
2022-10-30T03:55:37.211Z,14.70
2022-10-30T03:58:06.504Z,13.50
2022-10-30T04:00:36.155Z,15.20
2022-10-30T04:03:08.725Z,15.80
2022-10-30T04:05:39.062Z,16.20
2022-10-30T04:08:24.940Z,14.80
2022-10-30T04:10:53.338Z,16.50
2022-10-30T04:13:21.711Z,15.50
2022-10-30T04:15:57.160Z,15.70
2022-10-30T04:18:43.650Z,14.90
2022-10-30T04:24:16.825Z,19.60
2022-10-30T04:26:45.136Z,17.60
2022-10-30T04:29:13.599Z,16.30
2022-10-30T04:31:41.852Z,16.10
2022-10-30T04:34:29.781Z,17.20
2022-10-30T04:37:15.830Z,16.40
2022-10-30T04:39:46.458Z,15.80
2022-10-30T04:42:14.895Z,15.30
2022-10-30T04:44:43.095Z,17.00
2022-10-30T04:47:12.359Z,16.80
2022-10-30T04:49:40.583Z,16.20
2022-10-30T04:52:08.822Z,17.40
2022-10-30T04:57:40.927Z,20.40
2022-10-30T05:00:11.765Z,17.60
2022-10-30T05:02:40.183Z,18.00
2022-10-30T05:05:10.544Z,21.00
2022-10-30T05:07:38.970Z,18.60
2022-10-30T05:10:07.863Z,27.10
2022-10-30T05:12:36.166Z,19.40
2022-10-30T05:15:05.298Z,17.70
2022-10-30T05:17:33.759Z,17.60
2022-10-30T05:20:20.363Z,15.90
2022-10-30T05:23:06.502Z,18.50
2022-10-30T05:25:35.127Z,16.90
2022-10-30T05:28:06.540Z,20.60
2022-10-30T05:30:35.340Z,19.90
2022-10-30T05:33:11.463Z,16.10
2022-10-30T05:35:39.839Z,17.40
2022-10-30T05:38:08.271Z,17.00
2022-10-30T05:40:36.873Z,19.50
2022-10-30T05:43:06.021Z,16.30
2022-10-30T05:45:34.248Z,17.30
2022-10-30T05:48:06.874Z,17.70
2022-10-30T05:50:35.162Z,17.80
2022-10-30T05:53:05.350Z,19.00
2022-10-30T05:55:33.787Z,21.40
2022-10-30T05:58:19.435Z,19.90
2022-10-30T06:00:47.644Z,17.90
2022-10-30T06:03:15.869Z,15.60
2022-10-30T06:05:47.013Z,16.30
2022-10-30T06:08:18.174Z,17.80
2022-10-30T06:10:46.381Z,22.10
2022-10-30T06:13:14.634Z,20.20
2022-10-30T06:15:42.874Z,16.20
2022-10-30T06:18:11.253Z,19.10
2022-10-30T06:20:41.612Z,19.40
2022-10-30T06:23:27.341Z,16.90
2022-10-30T06:25:55.611Z,16.50
2022-10-30T06:28:23.867Z,17.30
2022-10-30T06:30:55.320Z,16.60
2022-10-30T06:33:23.542Z,22.60
2022-10-30T06:35:51.932Z,16.70
2022-10-30T06:38:20.218Z,18.00
2022-10-30T06:40:49.762Z,17.70
2022-10-30T06:43:17.984Z,17.00
2022-10-30T06:45:46.320Z,21.00
2022-10-30T06:48:14.611Z,19.30
2022-10-30T06:50:42.902Z,18.40
2022-10-30T06:53:11.204Z,18.30
2022-10-30T06:55:39.402Z,18.00
2022-10-30T06:58:07.808Z,19.40
2022-10-30T07:00:36.093Z,17.10
2022-10-30T07:03:04.864Z,21.50
2022-10-30T07:05:33.083Z,18.50
2022-10-30T07:08:01.421Z,21.80
2022-10-30T07:10:29.858Z,21.10
2022-10-30T07:13:16.071Z,19.70
2022-10-30T07:15:44.442Z,19.50
2022-10-30T07:18:12.704Z,18.90
2022-10-30T07:20:41.122Z,20.10
2022-10-30T07:23:09.346Z,20.40
2022-10-30T07:25:37.554Z,21.30
2022-10-30T07:28:06.316Z,21.30
2022-10-30T07:30:35.110Z,21.50
2022-10-30T07:33:07.656Z,21.70
2022-10-30T07:35:36.303Z,18.50
2022-10-30T07:38:22.023Z,20.30
2022-10-30T07:40:53.866Z,18.40
2022-10-30T07:43:39.953Z,17.00
2022-10-30T07:46:09.136Z,17.80
2022-10-30T07:48:37.977Z,18.40
2022-10-30T07:51:06.515Z,20.10
2022-10-30T07:53:52.715Z,20.00
2022-10-30T07:56:21.178Z,21.00
2022-10-30T07:59:06.897Z,19.00
2022-10-30T08:01:35.384Z,17.90
2022-10-30T08:04:03.817Z,17.30
2022-10-30T08:06:50.149Z,22.30
2022-10-30T08:09:18.418Z,52.00
2022-10-30T08:12:04.824Z,19.80
2022-10-30T08:14:50.871Z,15.80
2022-10-30T08:17:20.126Z,17.30
2022-10-30T08:19:48.380Z,16.90
2022-10-30T08:22:16.781Z,18.40
2022-10-30T08:24:45.252Z,17.30
2022-10-30T08:27:15.258Z,16.20
2022-10-30T08:29:43.547Z,17.50
2022-10-30T08:32:11.913Z,16.20
2022-10-30T08:34:41.667Z,17.70
2022-10-30T08:37:09.935Z,16.80
2022-10-30T08:39:38.849Z,16.10
2022-10-30T08:42:07.358Z,16.20
2022-10-30T08:44:35.663Z,17.80
2022-10-30T08:47:03.900Z,15.80
2022-10-30T08:49:32.184Z,10.50
2022-10-30T08:52:00.907Z,15.20
2022-10-30T08:54:29.189Z,15.70
2022-10-30T08:57:15.116Z,16.00
2022-10-30T08:59:43.378Z,16.30
2022-10-30T09:02:11.758Z,14.70
2022-10-30T09:04:40.140Z,13.70
2022-10-30T09:07:11.937Z,13.20
2022-10-30T09:10:02.251Z,12.90
2022-10-30T09:12:48.403Z,15.80
2022-10-30T09:15:33.898Z,13.80
2022-10-30T09:18:20.149Z,13.90
2022-10-30T09:20:49.710Z,13.20
2022-10-30T09:23:17.988Z,14.60
2022-10-30T09:25:46.190Z,14.80
2022-10-30T09:28:14.397Z,14.50
2022-10-30T09:31:02.311Z,13.50
2022-10-30T09:33:31.796Z,14.90
2022-10-30T09:36:02.605Z,13.00
2022-10-30T09:38:31.283Z,13.30
2022-10-30T09:41:23.919Z,12.60
2022-10-30T09:44:23.054Z,14.00
2022-10-30T09:47:23.467Z,12.90
2022-10-30T09:50:16.730Z,14.60
2022-10-30T09:53:07.106Z,13.30
2022-10-30T09:56:03.349Z,11.90
2022-10-30T09:59:02.792Z,12.80
2022-10-30T10:01:43.796Z,10.20
2022-10-30T10:04:33.357Z,12.10
2022-10-30T10:07:29.111Z,12.40
2022-10-30T10:10:05.436Z,10.10
2022-10-30T10:12:40.642Z,10.10
2022-10-30T10:15:35.200Z,12.90
2022-10-30T10:21:29.205Z,11.40
2022-10-30T10:24:03.567Z,10.40
2022-10-30T10:27:14.128Z,10.80
2022-10-30T10:30:05.248Z,8.80
2022-10-30T10:36:37.390Z,11.40
2022-10-30T10:39:23.431Z,9.80
2022-10-30T10:42:38.548Z,10.00
2022-10-30T10:45:20.524Z,9.70
2022-10-30T10:48:31.871Z,7.20
2022-10-30T10:51:09.802Z,9.50
2022-10-30T10:53:53.531Z,10.10
2022-10-30T10:56:29.725Z,6.10
2022-10-30T10:59:41.223Z,7.50
2022-10-30T11:02:09.515Z,9.20
2022-10-30T11:04:46.810Z,7.10
2022-10-30T11:07:32.328Z,7.00
2022-10-30T11:10:02.437Z,7.50
2022-10-30T11:12:48.172Z,6.60
2022-10-30T11:15:52.287Z,7.00
2022-10-30T11:18:20.650Z,8.80
2022-10-30T11:21:10.297Z,8.10
2022-10-30T11:23:44.180Z,6.50
2022-10-30T11:26:18.234Z,9.70
2022-10-30T11:28:52.620Z,6.30
2022-10-30T11:31:38.133Z,13.80
2022-10-30T11:34:18.862Z,10.00
2022-10-30T11:36:50.193Z,10.70
2022-10-30T11:39:36.066Z,6.30
2022-10-30T11:42:16.281Z,7.20
2022-10-30T11:44:51.955Z,5.70
2022-10-30T11:47:30.929Z,6.70
2022-10-30T11:50:06.645Z,7.20
2022-10-30T11:52:43.456Z,8.40
2022-10-30T11:55:27.338Z,7.50
2022-10-30T11:57:58.438Z,6.20
2022-10-30T12:00:45.325Z,8.30
2022-10-30T12:03:34.225Z,7.40
2022-10-30T12:06:24.876Z,7.00
2022-10-30T12:09:12.337Z,7.50
2022-10-30T12:11:44.941Z,7.00
2022-10-30T12:14:22.610Z,8.30
2022-10-30T12:16:53.285Z,10.00
2022-10-30T12:19:24.422Z,6.10
2022-10-30T12:21:57.150Z,8.50
2022-10-30T12:24:31.867Z,6.20
2022-10-30T12:27:12.517Z,9.40
2022-10-30T12:30:13.267Z,9.10
2022-10-30T12:33:22.770Z,6.70
2022-10-30T12:36:06.593Z,5.20
2022-10-30T12:38:59.096Z,7.50
2022-10-30T12:41:54.891Z,5.40
2022-10-30T12:45:08.053Z,5.20
2022-10-30T12:47:45.878Z,7.20
2022-10-30T12:50:13.993Z,8.00
2022-10-30T12:52:50.100Z,8.60
2022-10-30T12:55:29.954Z,6.50
2022-10-30T12:58:44.650Z,8.80
2022-10-30T13:01:59.203Z,7.80
2022-10-30T13:04:42.216Z,5.00
2022-10-30T13:07:22.501Z,8.30
2022-10-30T13:10:34.536Z,6.40
2022-10-30T13:13:16.740Z,5.10
2022-10-30T13:15:58.281Z,7.80
2022-10-30T13:18:44.277Z,8.20
2022-10-30T13:21:54.158Z,6.40
2022-10-30T13:24:57.911Z,5.70
2022-10-30T13:27:50.900Z,6.80
2022-10-30T13:30:25.592Z,5.20
2022-10-30T13:33:15.141Z,4.40
2022-10-30T13:36:21.851Z,4.80
2022-10-30T13:39:22.160Z,4.40
2022-10-30T13:42:14.933Z,4.80
2022-10-30T13:45:11.150Z,6.40
2022-10-30T13:48:04.059Z,8.50
2022-10-30T13:51:14.755Z,7.60
2022-10-30T13:53:48.381Z,6.70
2022-10-30T13:56:19.880Z,8.30
2022-10-30T13:59:16.964Z,8.20
2022-10-30T14:02:04.576Z,9.40
2022-10-30T14:05:01.897Z,7.40
2022-10-30T14:08:01.813Z,14.40
2022-10-30T14:10:45.658Z,8.40
2022-10-30T14:13:57.497Z,7.30
2022-10-30T14:16:39.076Z,16.20
2022-10-30T14:19:18.125Z,15.70
2022-10-30T14:21:55.842Z,6.80
2022-10-30T14:24:45.226Z,13.20
2022-10-30T14:27:33.570Z,17.70
2022-10-30T14:30:03.138Z,5.70
2022-10-30T14:32:52.553Z,7.30
2022-10-30T14:35:35.278Z,9.70
2022-10-30T14:38:26.436Z,8.60
2022-10-30T14:40:54.580Z,5.40
2022-10-30T14:44:23.596Z,6.60
2022-10-30T14:47:31.925Z,5.70
2022-10-30T14:50:26.290Z,7.50
2022-10-30T14:53:20.868Z,9.60
2022-10-30T14:56:00.193Z,8.40
2022-10-30T14:59:08.943Z,11.90
2022-10-30T15:02:04.084Z,9.70
2022-10-30T15:04:52.130Z,9.00
2022-10-30T15:07:38.385Z,7.70
2022-10-30T15:10:45.323Z,7.70
2022-10-30T15:13:31.340Z,7.10
2022-10-30T15:16:08.453Z,8.90
2022-10-30T15:18:39.803Z,11.50
2022-10-30T15:21:18.737Z,9.70
2022-10-30T15:23:47.058Z,14.70
2022-10-30T15:26:23.799Z,9.40
2022-10-30T15:28:53.837Z,9.20
2022-10-30T15:31:25.363Z,9.80
2022-10-30T15:34:23.070Z,9.70
2022-10-30T15:37:12.866Z,9.90
2022-10-30T15:39:41.072Z,11.80
2022-10-30T15:42:10.078Z,8.50
2022-10-30T15:44:43.167Z,10.00
2022-10-30T15:47:21.015Z,8.00
2022-10-30T15:52:35.639Z,9.10
2022-10-30T15:55:13.495Z,7.30
2022-10-30T15:58:04.868Z,10.90
2022-10-30T16:00:38.231Z,8.90
2022-10-30T16:03:12.812Z,11.40
2022-10-30T16:06:13.302Z,11.90
2022-10-30T16:08:48.067Z,10.40
2022-10-30T16:11:34.679Z,10.90
2022-10-30T16:14:09.086Z,11.60
2022-10-30T16:16:37.690Z,13.80
2022-10-30T16:19:06.142Z,12.70
2022-10-30T16:21:35.186Z,14.80
2022-10-30T16:24:05.271Z,19.90
2022-10-30T16:26:37.383Z,13.20
2022-10-30T16:29:26.951Z,11.70
2022-10-30T16:32:16.753Z,7.90
2022-10-30T16:35:04.418Z,9.20
2022-10-30T16:37:53.253Z,8.80
2022-10-30T16:40:28.670Z,10.80
2022-10-30T16:43:34.962Z,12.40
2022-10-30T16:46:15.607Z,11.90
2022-10-30T16:48:53.820Z,14.30
2022-10-30T16:51:22.957Z,8.60
2022-10-30T16:54:23.711Z,11.00
2022-10-30T16:56:56.078Z,18.60
2022-10-30T16:59:46.268Z,12.00
2022-10-30T17:02:20.469Z,8.60
2022-10-30T17:05:25.414Z,16.00
2022-10-30T17:08:05.242Z,13.10
2022-10-30T17:10:36.482Z,12.80
2022-10-30T17:13:35.215Z,13.10
2022-10-30T17:16:31.034Z,9.40
2022-10-30T17:19:30.110Z,11.90
2022-10-30T17:22:02.531Z,13.10
2022-10-30T17:24:48.651Z,17.40
2022-10-30T17:27:36.569Z,13.20
2022-10-30T17:30:35.991Z,16.00
2022-10-30T17:33:35.391Z,13.10
2022-10-30T17:36:06.144Z,12.40
2022-10-30T17:38:34.765Z,15.20
2022-10-30T17:41:20.447Z,12.20
2022-10-30T17:43:55.276Z,11.90
2022-10-30T17:46:24.323Z,12.80
2022-10-30T17:49:25.001Z,14.90
2022-10-30T17:52:18.428Z,12.50
2022-10-30T17:54:46.900Z,13.10
2022-10-30T17:57:16.916Z,14.40
2022-10-30T17:59:45.510Z,23.90
2022-10-30T18:02:23.009Z,15.60
2022-10-30T18:04:53.296Z,16.50
2022-10-30T18:07:21.549Z,15.50
2022-10-30T18:09:49.775Z,15.50
2022-10-30T18:12:19.274Z,15.70
2022-10-30T18:15:36.605Z,18.50
2022-10-30T18:18:05.971Z,12.90
2022-10-30T18:20:34.460Z,16.80
2022-10-30T18:23:03.420Z,13.60
2022-10-30T18:25:36.117Z,15.40
2022-10-30T18:28:04.771Z,17.20
2022-10-30T18:30:33.132Z,14.80
2022-10-30T18:33:02.168Z,14.00
2022-10-30T18:35:39.236Z,29.40
2022-10-30T18:38:25.472Z,20.10
2022-10-30T18:40:53.905Z,19.20
2022-10-30T18:43:22.160Z,21.00
2022-10-30T18:45:50.570Z,17.80
2022-10-30T18:48:36.891Z,15.40
2022-10-30T18:51:12.538Z,16.90
2022-10-30T18:53:40.770Z,12.60
2022-10-30T18:56:10.395Z,19.60
2022-10-30T18:58:38.658Z,16.80
2022-10-30T19:01:12.131Z,18.10
2022-10-30T19:03:41.849Z,23.00
2022-10-30T19:06:13.696Z,18.10
2022-10-30T19:08:59.317Z,15.00
2022-10-30T19:11:30.929Z,22.60
2022-10-30T19:13:59.933Z,22.80
2022-10-30T19:16:29.116Z,23.10
2022-10-30T19:18:57.399Z,28.60
2022-10-30T19:21:26.269Z,29.10
2022-10-30T19:24:15.563Z,29.20
2022-10-30T19:26:43.879Z,26.80
2022-10-30T19:29:29.916Z,28.90
2022-10-30T19:31:58.171Z,22.20
2022-10-30T19:34:26.430Z,19.60
2022-10-30T19:36:56.649Z,21.60
2022-10-30T19:39:25.202Z,22.90
2022-10-30T19:41:53.547Z,21.20
2022-10-30T19:44:21.803Z,22.20
2022-10-30T19:47:10.589Z,21.40
2022-10-30T19:49:56.410Z,19.80
2022-10-30T19:52:29.147Z,12.50
2022-10-30T19:55:17.375Z,16.60
2022-10-30T19:57:46.483Z,14.00
2022-10-30T20:00:21.299Z,14.20
2022-10-30T20:03:07.909Z,15.30
2022-10-30T20:05:40.600Z,17.00
2022-10-30T20:08:17.934Z,16.20
2022-10-30T20:11:03.898Z,19.00
2022-10-30T20:13:33.449Z,18.60
2022-10-30T20:16:07.290Z,17.20
2022-10-30T20:18:36.432Z,21.30
2022-10-30T20:21:10.640Z,19.50
2022-10-30T20:23:39.536Z,16.70
2022-10-30T20:26:30.137Z,17.10
2022-10-30T20:29:02.250Z,17.50
2022-10-30T20:31:30.555Z,16.70
2022-10-30T20:33:58.886Z,14.30
2022-10-30T20:36:29.138Z,19.80
2022-10-30T20:38:57.561Z,22.40
2022-10-30T20:41:29.386Z,18.60
2022-10-30T20:44:00.165Z,17.30
2022-10-30T20:46:28.633Z,21.90
2022-10-30T20:48:57.054Z,19.90
2022-10-30T20:51:25.836Z,23.10
2022-10-30T20:53:54.693Z,18.10
2022-10-30T20:56:23.114Z,25.40
2022-10-30T20:58:53.469Z,17.10
2022-10-30T21:01:21.850Z,14.50
2022-10-30T21:03:50.972Z,22.10
2022-10-30T21:06:19.249Z,12.60
2022-10-30T21:08:47.481Z,16.40
2022-10-30T21:11:18.097Z,15.60
2022-10-30T21:13:46.397Z,14.80
2022-10-30T21:16:14.609Z,18.30
2022-10-30T21:18:42.931Z,17.30
2022-10-30T21:21:13.433Z,16.50
2022-10-30T21:23:41.743Z,25.70
2022-10-30T21:26:11.829Z,20.70
2022-10-30T21:28:41.222Z,18.30
2022-10-30T21:31:13.274Z,20.20
2022-10-30T21:33:41.591Z,21.20
2022-10-30T21:36:27.538Z,18.00
2022-10-30T21:38:58.401Z,17.20
2022-10-30T21:41:27.172Z,21.10
2022-10-30T21:43:57.494Z,17.60
2022-10-30T21:46:29.390Z,18.10
2022-10-30T21:49:06.204Z,19.40
2022-10-30T21:51:34.969Z,23.80
2022-10-30T21:54:03.424Z,17.90
2022-10-30T21:56:50.114Z,18.60
2022-10-30T21:59:18.399Z,18.10
2022-10-30T22:01:46.823Z,17.40
2022-10-30T22:04:16.219Z,17.30
2022-10-30T22:06:44.814Z,21.10
2022-10-30T22:09:18.295Z,20.80
2022-10-30T22:12:04.475Z,17.00
2022-10-30T22:14:32.669Z,21.00
2022-10-30T22:17:18.249Z,18.50
2022-10-30T22:19:46.574Z,18.40
2022-10-30T22:22:14.802Z,17.90
2022-10-30T22:24:43.075Z,16.80
2022-10-30T22:27:11.392Z,16.20
2022-10-30T22:29:39.626Z,18.70
2022-10-30T22:32:07.872Z,17.40
2022-10-30T22:34:36.135Z,18.70
2022-10-30T22:37:21.621Z,22.50
2022-10-30T22:39:49.793Z,14.40
2022-10-30T22:42:18.030Z,21.50
2022-10-30T22:44:46.365Z,17.50
2022-10-30T22:47:14.604Z,18.10
2022-10-30T22:49:42.867Z,18.60
2022-10-30T22:52:11.155Z,18.30
2022-10-30T22:54:39.385Z,22.00
2022-10-30T22:57:07.599Z,16.20
2022-10-30T22:59:51.245Z,15.00
2022-10-30T23:02:19.499Z,18.10
2022-10-30T23:04:47.805Z,17.70
2022-10-30T23:07:17.043Z,15.80
2022-10-30T23:09:45.299Z,25.30
2022-10-30T23:12:13.557Z,22.50
2022-10-30T23:14:41.809Z,17.70
2022-10-30T23:17:10.050Z,15.50
2022-10-30T23:19:38.460Z,22.10
2022-10-30T23:22:06.849Z,17.90
2022-10-30T23:24:35.137Z,14.50
2022-10-30T23:27:03.486Z,17.10
2022-10-30T23:29:31.929Z,17.10
2022-10-30T23:32:00.252Z,19.00
2022-10-30T23:34:28.504Z,18.50
2022-10-30T23:36:59.188Z,21.10
2022-10-30T23:39:30.303Z,16.40
2022-10-30T23:41:58.526Z,20.70
2022-10-30T23:44:26.735Z,17.10
2022-10-30T23:46:54.921Z,22.70
2022-10-30T23:49:23.142Z,18.40
2022-10-30T23:51:51.429Z,16.70
2022-10-30T23:54:19.674Z,12.70
2022-10-30T23:56:48.024Z,19.20
2022-10-30T23:59:16.258Z,21.10
